Time;durP1;ratioP1;P1;durP2;ratioP2;P2;SDS_P1;SDS_P2;PMS_P1;PMS_P2;Temp;Humidity;BMP_temperature;BMP_pressure;BME280_temperature;BME280_humidity;BME280_pressure;Samples;Min_cycle;Max_cycle;Signal;HPM_P1;HPM_P2
2022/02/23 00:02:42;;;;;;;8.77;1.95;;;12.90;49.30;;;;;;6176304;28;20050;-72
2022/02/23 00:05:43;;;;;;;3.22;1.25;;;12.90;49.50;;;;;;6195001;28;20034;-72
2022/02/23 00:08:44;;;;;;;12.23;1.92;;;12.80;49.60;;;;;;6193576;28;20038;-72
2022/02/23 00:11:45;;;;;;;11.48;2.35;;;12.80;49.70;;;;;;6180712;28;20129;-71
2022/02/23 00:14:46;;;;;;;8.15;1.90;;;12.70;49.80;;;;;;6191215;28;20743;-71
2022/02/23 00:17:47;;;;;;;11.98;1.50;;;12.70;49.90;;;;;;6163138;28;20097;-73
2022/02/23 00:20:50;;;;;;;8.52;1.50;;;12.70;50.00;;;;;;6172570;28;20045;-71
2022/02/23 00:23:50;;;;;;;5.22;1.33;;;12.70;50.00;;;;;;6209179;28;20065;-71
2022/02/23 00:26:51;;;;;;;2.85;1.25;;;12.60;50.00;;;;;;6207998;28;20383;-71
2022/02/23 00:29:55;;;;;;;7.35;1.65;;;12.70;50.10;;;;;;6188813;28;20042;-72
2022/02/23 00:32:57;;;;;;;4.50;1.48;;;12.70;50.20;;;;;;6186195;28;20054;-71
2022/02/23 00:35:57;;;;;;;4.35;1.55;;;12.60;50.10;;;;;;6193002;28;20065;-71
2022/02/23 00:38:58;;;;;;;4.45;1.10;;;12.60;50.10;;;;;;6191788;28;20039;-72
2022/02/23 00:41:59;;;;;;;8.75;1.25;;;12.60;50.20;;;;;;6209707;28;20061;-71
2022/02/23 00:45:00;;;;;;;10.85;1.98;;;12.60;50.20;;;;;;6192141;28;20031;-71
2022/02/23 00:48:01;;;;;;;4.32;1.20;;;12.60;50.20;;;;;;6192701;28;20070;-71
2022/02/23 00:51:02;;;;;;;4.47;1.42;;;12.60;50.30;;;;;;6169364;28;20027;-72
2022/02/23 00:54:03;;;;;;;2.55;1.05;;;12.60;50.30;;;;;;6164098;28;20106;-71
2022/02/23 00:57:04;;;;;;;9.73;2.17;;;12.60;50.40;;;;;;6207981;28;20070;-72
2022/02/23 01:00:06;;;;;;;7.00;2.03;;;12.60;50.40;;;;;;6192090;28;20057;-72
2022/02/23 01:03:07;;;;;;;12.32;2.00;;;12.60;50.40;;;;;;6191515;28;20097;-72
2022/02/23 01:06:07;;;;;;;5.30;1.83;;;12.60;50.40;;;;;;6191284;28;20039;-72
2022/02/23 01:09:08;;;;;;;3.30;1.52;;;12.60;50.40;;;;;;6176527;28;20113;-72
2022/02/23 01:12:10;;;;;;;3.78;1.45;;;12.60;50.50;;;;;;6181808;28;20045;-72
2022/02/23 01:15:12;;;;;;;3.65;1.27;;;12.60;50.60;;;;;;6190974;28;20038;-72
2022/02/23 01:18:13;;;;;;;14.77;1.85;;;12.60;50.70;;;;;;6191230;28;20065;-73
2022/02/23 01:21:14;;;;;;;7.78;1.75;;;12.50;51.30;;;;;;6190207;28;20503;-73
2022/02/23 01:24:15;;;;;;;11.02;2.22;;;12.50;50.80;;;;;;6176182;28;20380;-71
2022/02/23 01:27:16;;;;;;;3.30;1.42;;;12.50;51.00;;;;;;6188380;28;20042;-71
2022/02/23 01:30:17;;;;;;;8.80;1.45;;;12.50;50.90;;;;;;6190851;28;20076;-71
2022/02/23 01:33:18;;;;;;;6.90;1.65;;;12.50;51.00;;;;;;6206562;28;20117;-71
2022/02/23 01:36:19;;;;;;;6.82;1.42;;;12.40;51.00;;;;;;6182427;28;20663;-71
2022/02/23 01:39:20;;;;;;;6.22;2.13;;;12.40;51.00;;;;;;6191277;28;20042;-71
2022/02/23 01:42:21;;;;;;;14.10;2.05;;;12.40;51.10;;;;;;6191738;28;20136;-71
2022/02/23 01:45:22;;;;;;;7.85;1.42;;;12.40;51.20;;;;;;6204928;28;20023;-71
2022/02/23 01:48:23;;;;;;;10.30;2.28;;;12.40;51.30;;;;;;6189952;28;20046;-70
2022/02/23 01:51:24;;;;;;;9.77;1.75;;;12.30;51.30;;;;;;6206899;28;20108;-71
2022/02/23 01:54:25;;;;;;;4.85;1.65;;;12.30;51.50;;;;;;6191030;28;20049;-71
2022/02/23 01:57:26;;;;;;;7.30;1.52;;;12.20;51.60;;;;;;6191037;28;20042;-71
2022/02/23 02:00:27;;;;;;;4.95;1.48;;;12.20;51.70;;;;;;6189191;28;20049;-71
2022/02/23 02:03:28;;;;;;;7.43;2.13;;;12.20;51.90;;;;;;6188217;28;20054;-71
2022/02/23 02:06:29;;;;;;;5.18;1.63;;;12.20;51.80;;;;;;6199563;28;20046;-72
2022/02/23 02:09:30;;;;;;;8.30;1.90;;;12.20;51.80;;;;;;6166178;28;20045;-71
2022/02/23 02:12:31;;;;;;;5.68;1.67;;;12.10;51.80;;;;;;6189406;28;20124;-71
2022/02/23 02:15:32;;;;;;;7.00;2.03;;;12.20;51.90;;;;;;6204921;28;20173;-71
2022/02/23 02:18:33;;;;;;;6.55;1.58;;;12.10;52.00;;;;;;6206874;28;20038;-71
2022/02/23 02:21:54;;;;;;;10.43;2.22;;;12.10;52.00;;;;;;6181993;28;20049;-71
2022/02/23 02:24:57;;;;;;;6.28;1.83;;;12.10;52.10;;;;;;6186565;28;20061;-72
2022/02/23 02:27:57;;;;;;;19.02;2.00;;;12.00;52.10;;;;;;6177202;28;20038;-71
2022/02/23 02:30:58;;;;;;;9.27;1.88;;;12.00;52.30;;;;;;6186463;28;20058;-71
2022/02/23 02:34:00;;;;;;;3.78;1.90;;;12.00;52.40;;;;;;6181680;28;20043;-72
2022/02/23 02:37:00;;;;;;;7.35;1.75;;;11.90;52.50;;;;;;6187059;28;20129;-72
2022/02/23 02:40:02;;;;;;;7.05;1.77;;;11.90;52.60;;;;;;6204004;28;20651;-72
2022/02/23 02:43:05;;;;;;;8.75;1.73;;;11.80;52.70;;;;;;6192405;28;20050;-72
2022/02/23 02:46:05;;;;;;;3.22;1.35;;;11.80;52.80;;;;;;6191967;28;20042;-72
2022/02/23 02:49:07;;;;;;;2.88;1.42;;;11.80;52.80;;;;;;6189400;28;20037;-72
2022/02/23 02:52:08;;;;;;;12.63;2.03;;;11.70;53.10;;;;;;6193120;28;20049;-73
2022/02/23 02:55:09;;;;;;;6.10;1.65;;;11.70;53.10;;;;;;6175223;28;20471;-71
2022/02/23 02:58:10;;;;;;;12.35;2.25;;;11.70;53.20;;;;;;6193263;28;20080;-71
2022/02/23 03:01:11;;;;;;;4.07;1.52;;;11.60;53.20;;;;;;6192179;28;20042;-72
2022/02/23 03:04:12;;;;;;;4.57;1.58;;;11.60;53.30;;;;;;6190108;28;20050;-71
2022/02/23 03:07:13;;;;;;;6.78;1.83;;;11.60;53.40;;;;;;6191726;28;20042;-72
2022/02/23 03:10:14;;;;;;;9.13;2.40;;;11.60;53.40;;;;;;6192782;28;20073;-71
2022/02/23 03:13:15;;;;;;;5.55;1.50;;;11.60;53.40;;;;;;6191153;28;20043;-72
2022/02/23 03:16:17;;;;;;;8.75;2.03;;;11.50;53.50;;;;;;6206957;28;20049;-71
2022/02/23 03:19:17;;;;;;;4.65;1.60;;;11.50;53.60;;;;;;6192082;28;20034;-72
2022/02/23 03:22:18;;;;;;;3.63;1.58;;;11.50;53.70;;;;;;6192715;28;21729;-73
2022/02/23 03:25:19;;;;;;;10.73;1.83;;;11.40;53.80;;;;;;6191976;28;20432;-71
2022/02/23 03:28:21;;;;;;;7.00;1.92;;;11.40;53.90;;;;;;6196786;28;20133;-71
2022/02/23 03:31:22;;;;;;;4.38;1.50;;;11.30;54.00;;;;;;6182457;28;20044;-71
2022/02/23 03:34:23;;;;;;;13.20;1.30;;;11.30;54.20;;;;;;6190135;28;20416;-71
2022/02/23 03:37:24;;;;;;;4.05;1.15;;;11.30;54.30;;;;;;6190776;28;20159;-71
2022/02/23 03:40:26;;;;;;;6.35;1.90;;;11.20;54.40;;;;;;6190128;28;20047;-73
2022/02/23 03:43:27;;;;;;;6.63;1.80;;;11.20;54.50;;;;;;6178788;28;20537;-71
2022/02/23 03:46:28;;;;;;;3.47;1.63;;;11.20;54.60;;;;;;6197050;28;20046;-72
2022/02/23 03:49:29;;;;;;;5.30;1.50;;;11.10;54.60;;;;;;6188951;28;20057;-71
2022/02/23 03:52:30;;;;;;;7.05;1.75;;;11.10;54.70;;;;;;6188620;28;20096;-72
2022/02/23 03:55:31;;;;;;;11.07;2.00;;;11.10;54.70;;;;;;6190781;28;20038;-72
2022/02/23 03:58:32;;;;;;;3.63;1.63;;;11.10;54.80;;;;;;6173228;28;20046;-72
2022/02/23 04:01:37;;;;;;;3.50;1.30;;;11.10;54.80;;;;;;6187660;28;20104;-71
2022/02/23 04:04:38;;;;;;;5.25;1.35;;;11.10;54.80;;;;;;6198202;28;20042;-71
2022/02/23 04:07:39;;;;;;;6.03;1.65;;;11.10;54.80;;;;;;6189016;28;20053;-71
2022/02/23 04:10:40;;;;;;;4.18;1.80;;;11.10;54.90;;;;;;6190162;28;20456;-71
2022/02/23 04:13:41;;;;;;;7.07;1.95;;;11.10;54.90;;;;;;6172536;28;20147;-71
2022/02/23 04:16:42;;;;;;;4.18;1.75;;;11.10;55.00;;;;;;6191061;28;20153;-71
2022/02/23 04:19:43;;;;;;;5.70;1.58;;;11.00;54.90;;;;;;6190605;28;20482;-72
2022/02/23 04:22:45;;;;;;;4.05;1.65;;;11.00;54.90;;;;;;6189903;28;20063;-73
2022/02/23 04:25:45;;;;;;;2.80;1.67;;;11.10;55.00;;;;;;6190911;28;20046;-71
2022/02/23 04:28:47;;;;;;;2.50;1.45;;;11.00;55.00;;;;;;6190376;28;20181;-71
2022/02/23 04:31:48;;;;;;;5.03;1.80;;;11.00;55.10;;;;;;6189662;28;20034;-71
2022/02/23 04:34:49;;;;;;;5.05;2.10;;;10.90;55.10;;;;;;6190596;28;20512;-71
2022/02/23 04:37:50;;;;;;;9.15;2.00;;;10.90;55.10;;;;;;6189663;28;20045;-71
2022/02/23 04:40:51;;;;;;;4.80;1.30;;;10.90;55.20;;;;;;6191199;28;20066;-71
2022/02/23 04:43:51;;;;;;;4.40;2.20;;;10.80;55.20;;;;;;6189739;28;20049;-71
2022/02/23 04:46:53;;;;;;;4.53;1.60;;;10.80;55.30;;;;;;6189834;28;20541;-71
2022/02/23 04:49:54;;;;;;;5.18;1.73;;;10.80;55.30;;;;;;6190541;28;20092;-72
2022/02/23 04:52:55;;;;;;;4.25;1.70;;;10.90;55.40;;;;;;6204999;28;20048;-71
2022/02/23 04:55:56;;;;;;;8.98;2.00;;;10.80;55.40;;;;;;6186859;28;20033;-72
2022/02/23 04:58:57;;;;;;;3.08;1.65;;;10.80;55.50;;;;;;6189879;28;20090;-71
2022/02/23 05:01:58;;;;;;;8.77;2.03;;;10.80;55.60;;;;;;6188149;28;20118;-72
2022/02/23 05:04:59;;;;;;;6.32;2.25;;;10.80;55.60;;;;;;6180488;28;20174;-71
2022/02/23 05:08:00;;;;;;;6.35;2.45;;;10.70;55.70;;;;;;6190072;28;20052;-72
2022/02/23 05:11:01;;;;;;;3.75;1.77;;;10.70;55.70;;;;;;6189119;28;20490;-71
2022/02/23 05:14:02;;;;;;;6.60;2.08;;;10.70;55.70;;;;;;6187948;28;20153;-71
2022/02/23 05:17:03;;;;;;;10.35;2.63;;;10.70;55.80;;;;;;6203181;28;20487;-71
2022/02/23 05:20:05;;;;;;;3.47;1.63;;;10.70;55.30;;;;;;6183944;28;20069;-71
2022/02/23 05:23:06;;;;;;;4.13;1.38;;;10.60;55.80;;;;;;6179645;28;20546;-71
2022/02/23 05:26:11;;;;;;;6.03;1.88;;;10.60;55.90;;;;;;6192883;28;20042;-71
2022/02/23 05:29:12;;;;;;;6.72;1.63;;;10.50;56.10;;;;;;6176419;28;20046;-72
2022/02/23 05:32:13;;;;;;;3.78;1.50;;;10.50;56.10;;;;;;6178551;28;20117;-71
2022/02/23 05:35:14;;;;;;;9.63;2.05;;;10.40;56.20;;;;;;6198265;28;20423;-72
2022/02/23 05:38:15;;;;;;;7.57;2.28;;;10.40;56.30;;;;;;6194933;28;20137;-71
2022/02/23 05:41:15;;;;;;;7.95;2.67;;;10.40;56.50;;;;;;6190795;28;20042;-71
2022/02/23 05:44:17;;;;;;;3.47;2.05;;;10.30;56.40;;;;;;6189147;28;20129;-72
2022/02/23 05:47:17;;;;;;;6.85;2.30;;;10.30;56.50;;;;;;6205162;28;20044;-70
2022/02/23 05:50:18;;;;;;;10.07;2.10;;;10.30;56.70;;;;;;6188438;28;20089;-70
2022/02/23 05:53:19;;;;;;;7.45;1.77;;;10.20;56.80;;;;;;6189231;28;20121;-71
2022/02/23 05:56:20;;;;;;;6.88;2.70;;;10.20;56.90;;;;;;6181165;28;20054;-70
2022/02/23 05:59:21;;;;;;;5.07;1.83;;;10.20;57.00;;;;;;6190288;28;20044;-69
2022/02/23 06:02:22;;;;;;;4.70;1.80;;;10.10;57.00;;;;;;6189111;28;20042;-70
2022/02/23 06:05:23;;;;;;;4.20;2.00;;;10.10;57.00;;;;;;6179311;28;20345;-71
2022/02/23 06:08:24;;;;;;;4.95;2.05;;;10.10;57.00;;;;;;6188488;28;20049;-70
2022/02/23 06:11:25;;;;;;;8.27;2.75;;;10.10;57.20;;;;;;6203560;28;20061;-72
2022/02/23 06:14:27;;;;;;;14.23;2.60;;;10.10;57.10;;;;;;6204169;28;20050;-71
2022/02/23 06:17:28;;;;;;;2.97;1.80;;;10.10;57.20;;;;;;6189642;28;20892;-71
2022/02/23 06:20:29;;;;;;;8.82;2.72;;;10.10;57.30;;;;;;6189010;28;20058;-71
2022/02/23 06:23:30;;;;;;;8.00;2.67;;;10.10;57.30;;;;;;6189631;28;20034;-73
2022/02/23 06:26:31;;;;;;;9.68;3.75;;;10.10;57.30;;;;;;6189880;28;20117;-71
2022/02/23 06:29:32;;;;;;;7.18;3.25;;;10.10;57.30;;;;;;6198156;28;20040;-71
2022/02/23 06:32:33;;;;;;;7.55;2.78;;;10.10;57.30;;;;;;6159977;28;20051;-71
2022/02/23 06:35:33;;;;;;;12.07;3.40;;;10.10;57.40;;;;;;6172875;28;20034;-71
2022/02/23 06:38:41;;;;;;;5.47;2.95;;;10.10;57.40;;;;;;6194190;28;20096;-71
2022/02/23 06:41:43;;;;;;;11.23;3.40;;;10.20;57.40;;;;;;6179332;28;20035;-72
2022/02/23 06:44:44;;;;;;;10.02;3.53;;;10.10;57.40;;;;;;6189140;28;20118;-71
2022/02/23 06:47:45;;;;;;;7.22;2.97;;;10.10;57.30;;;;;;6210881;28;20027;-71
2022/02/23 06:50:46;;;;;;;6.88;2.88;;;10.10;57.30;;;;;;6211346;28;20034;-72
2022/02/23 06:53:48;;;;;;;7.88;3.17;;;10.10;57.30;;;;;;6179984;28;20038;-72
2022/02/23 06:56:49;;;;;;;14.23;2.50;;;10.10;57.50;;;;;;6193074;28;20363;-72
2022/02/23 06:59:52;;;;;;;7.07;2.13;;;10.10;57.40;;;;;;6203505;28;20042;-72
2022/02/23 07:02:53;;;;;;;10.00;2.55;;;10.10;57.40;;;;;;6202942;28;20035;-72
2022/02/23 07:05:58;;;;;;;4.78;1.95;;;10.00;57.40;;;;;;6175344;28;20471;-71
2022/02/23 07:09:02;;;;;;;8.30;2.97;;;10.00;57.50;;;;;;6194128;28;20037;-71
2022/02/23 07:12:08;;;;;;;8.40;3.25;;;9.90;57.60;;;;;;6189838;28;20341;-71
2022/02/23 07:15:09;;;;;;;5.68;2.30;;;9.90;57.70;;;;;;6196823;28;20038;-73
2022/02/23 07:18:10;;;;;;;6.78;2.95;;;9.90;57.70;;;;;;6178981;28;20042;-72
2022/02/23 07:21:12;;;;;;;15.32;3.35;;;9.90;57.70;;;;;;6210771;28;20042;-72
2022/02/23 07:24:13;;;;;;;11.30;2.10;;;10.00;57.70;;;;;;6203929;28;20484;-71
2022/02/23 07:27:14;;;;;;;16.73;2.80;;;10.00;57.70;;;;;;6199110;28;20049;-71
2022/02/23 07:30:16;;;;;;;6.38;2.80;;;10.00;57.60;;;;;;6198256;28;20419;-71
2022/02/23 07:33:19;;;;;;;10.65;3.05;;;10.00;57.70;;;;;;6199248;28;20437;-72
2022/02/23 07:36:19;;;;;;;11.05;2.45;;;10.00;57.60;;;;;;6215219;28;20050;-72
2022/02/23 07:39:21;;;;;;;7.43;3.05;;;10.10;57.70;;;;;;6198125;28;20038;-72
2022/02/23 07:42:23;;;;;;;7.03;2.38;;;10.10;57.60;;;;;;6215001;28;20045;-71
2022/02/23 07:45:24;;;;;;;11.00;2.80;;;10.10;57.50;;;;;;6199731;28;20034;-72
2022/02/23 07:48:26;;;;;;;18.67;2.85;;;10.20;57.50;;;;;;6200274;28;20444;-71
2022/02/23 07:51:27;;;;;;;5.85;2.47;;;10.20;57.40;;;;;;6209574;28;20065;-72
2022/02/23 07:54:28;;;;;;;6.20;2.50;;;10.20;57.30;;;;;;6215182;28;20126;-72
2022/02/23 07:57:29;;;;;;;10.15;2.90;;;10.20;57.40;;;;;;6186000;28;20087;-72
2022/02/23 08:00:30;;;;;;;10.93;3.10;;;10.30;57.20;;;;;;6200155;28;20034;-72
2022/02/23 08:03:32;;;;;;;11.38;2.97;;;10.30;57.20;;;;;;6191737;28;20356;-71
2022/02/23 08:06:34;;;;;;;12.68;3.28;;;10.30;57.10;;;;;;6200241;28;20050;-71
2022/02/23 08:09:35;;;;;;;7.50;3.20;;;10.40;57.20;;;;;;6200142;28;20030;-71
2022/02/23 08:12:36;;;;;;;9.18;2.42;;;10.50;57.60;;;;;;6200843;28;20091;-71
2022/02/23 08:22:16;;;;;;;5.95;2.30;;;10.80;56.60;;;;;;6198785;28;20092;-71
2022/02/23 08:25:17;;;;;;;6.88;2.67;;;11.00;56.50;;;;;;6198398;28;20034;-71
2022/02/23 08:28:18;;;;;;;9.88;2.80;;;11.20;56.10;;;;;;6194959;28;20065;-71
2022/02/23 08:31:19;;;;;;;10.45;2.75;;;11.40;55.70;;;;;;6197919;28;20042;-72
2022/02/23 08:34:21;;;;;;;7.97;2.72;;;11.50;55.30;;;;;;6198811;28;20031;-71
2022/02/23 08:37:24;;;;;;;6.43;2.53;;;11.70;54.90;;;;;;6196661;28;20042;-72
2022/02/23 08:40:26;;;;;;;5.35;2.35;;;11.80;54.60;;;;;;6197148;28;20430;-71
2022/02/23 08:43:27;;;;;;;10.43;3.05;;;11.90;54.50;;;;;;6198428;28;20066;-72
2022/02/23 08:46:29;;;;;;;18.45;3.17;;;12.00;54.30;;;;;;6198175;28;20117;-70
2022/02/23 08:49:30;;;;;;;13.43;3.17;;;12.10;53.80;;;;;;6196522;28;20364;-71
2022/02/23 08:52:31;;;;;;;7.63;2.65;;;12.20;53.70;;;;;;6196977;28;20062;-71
2022/02/23 08:55:32;;;;;;;9.00;2.38;;;12.30;53.60;;;;;;6198643;28;20404;-72
2022/02/23 08:58:33;;;;;;;7.78;2.67;;;12.40;53.30;;;;;;6213823;28;20143;-72
2022/02/23 09:01:34;;;;;;;9.18;2.70;;;12.50;52.90;;;;;;6213433;28;20050;-71
2022/02/23 09:04:35;;;;;;;11.00;2.38;;;12.60;52.60;;;;;;6170305;28;20057;-72
2022/02/23 09:07:36;;;;;;;11.57;2.90;;;12.70;52.50;;;;;;6197548;28;20030;-71
2022/02/23 09:10:37;;;;;;;8.63;3.00;;;12.80;52.40;;;;;;6198093;28;20387;-71
2022/02/23 09:13:38;;;;;;;5.68;2.55;;;12.90;52.20;;;;;;6214184;28;20066;-72
2022/02/23 09:16:40;;;;;;;3.67;2.10;;;13.00;52.00;;;;;;6197117;28;20069;-71
2022/02/23 09:19:41;;;;;;;11.82;2.35;;;13.10;52.00;;;;;;6214078;28;20050;-72
2022/02/23 09:22:42;;;;;;;7.60;2.38;;;13.20;51.80;;;;;;6213759;28;20467;-72
2022/02/23 09:25:43;;;;;;;8.38;2.45;;;13.30;51.50;;;;;;6197983;28;20045;-71
2022/02/23 09:28:44;;;;;;;5.28;2.20;;;13.30;51.10;;;;;;6213135;28;20038;-72
2022/02/23 09:31:45;;;;;;;6.85;2.08;;;13.30;51.20;;;;;;6197111;28;20042;-71
2022/02/23 09:34:45;;;;;;;5.40;1.92;;;13.40;51.10;;;;;;6188302;28;20034;-71
2022/02/23 09:37:48;;;;;;;5.30;2.22;;;13.40;51.00;;;;;;6212242;28;20038;-73
2022/02/23 09:40:56;;;;;;;7.97;2.42;;;13.40;50.80;;;;;;6195404;28;20461;-71
2022/02/23 09:43:57;;;;;;;;;;;13.50;50.80;;;;;;6197023;28;20046;-72
2022/02/23 09:47:01;;;;;;;10.75;3.13;;;13.60;50.70;;;;;;6210965;28;20255;-72
2022/02/23 09:50:08;;;;;;;11.20;3.78;;;13.70;50.30;;;;;;6194230;28;20503;-72
2022/02/23 09:53:09;;;;;;;6.55;3.65;;;13.70;50.10;;;;;;6197269;28;20049;-72
2022/02/23 09:56:12;;;;;;;11.52;3.97;;;13.70;50.00;;;;;;6195744;28;20149;-72
2022/02/23 09:59:13;;;;;;;9.45;3.50;;;13.80;50.10;;;;;;6195961;28;20168;-72
2022/02/23 10:02:15;;;;;;;9.07;3.80;;;13.80;49.80;;;;;;6211846;28;20088;-72
2022/02/23 10:05:17;;;;;;;7.78;2.55;;;13.80;49.60;;;;;;6189185;28;20091;-72
2022/02/23 10:08:18;;;;;;;5.45;2.45;;;13.90;49.50;;;;;;6212109;28;20373;-72
2022/02/23 10:11:19;;;;;;;11.10;2.10;;;13.90;49.40;;;;;;6196246;28;20052;-73
2022/02/23 10:14:20;;;;;;;9.30;2.70;;;14.00;49.60;;;;;;6195873;28;20114;-72
2022/02/23 10:17:38;;;;;;;11.70;3.53;;;14.00;49.20;;;;;;6196980;28;20058;-72
2022/02/23 10:20:40;;;;;;;5.70;2.25;;;14.10;49.30;;;;;;6196742;28;20038;-72
2022/02/23 10:23:41;;;;;;;8.20;2.70;;;14.20;49.20;;;;;;6196748;28;20052;-72
2022/02/23 10:26:53;;;;;;;11.18;3.25;;;14.30;49.20;;;;;;6211779;28;20034;-72
2022/02/23 10:29:55;;;;;;;22.90;3.97;;;14.40;49.10;;;;;;6194536;28;20038;-72
2022/02/23 10:33:10;;;;;;;7.00;2.53;;;14.60;48.60;;;;;;6211300;28;20054;-71
2022/02/23 10:36:18;;;;;;;7.68;2.20;;;14.80;48.10;;;;;;6195779;28;20413;-72
2022/02/23 10:39:19;;;;;;;6.55;1.95;;;15.20;47.40;;;;;;6193195;28;20026;-72
2022/02/23 10:42:26;;;;;;;4.45;1.60;;;15.60;46.70;;;;;;6211385;28;20476;-72
2022/02/23 10:45:28;;;;;;;4.80;1.70;;;16.00;45.90;;;;;;6195999;28;20038;-73
2022/02/23 10:48:31;;;;;;;14.38;1.85;;;16.20;45.50;;;;;;6194796;28;20038;-73
2022/02/23 10:51:35;;;;;;;6.28;1.85;;;16.40;45.20;;;;;;6194903;28;20113;-73
2022/02/23 10:54:37;;;;;;;9.18;3.38;;;16.60;44.60;;;;;;6208403;28;20034;-72
2022/02/23 10:57:46;;;;;;;8.27;2.75;;;16.80;44.20;;;;;;6195717;28;20108;-73
2022/02/23 11:00:50;;;;;;;5.75;1.65;;;17.00;44.10;;;;;;6208911;28;20354;-72
2022/02/23 11:03:51;;;;;;;5.57;1.98;;;17.30;43.40;;;;;;6191822;28;20080;-72
2022/02/23 11:06:53;;;;;;;11.15;2.40;;;17.40;42.90;;;;;;6213685;28;20031;-72
2022/02/23 11:09:54;;;;;;;10.23;5.07;;;17.60;42.00;;;;;;6216982;28;20081;-72
2022/02/23 11:12:57;;;;;;;6.70;2.00;;;17.70;41.30;;;;;;6200666;28;20034;-72
2022/02/23 11:15:59;;;;;;;6.30;2.20;;;17.90;41.00;;;;;;6200595;28;20034;-73
2022/02/23 11:19:03;;;;;;;4.15;1.40;;;18.00;40.70;;;;;;6201182;28;20470;-73
2022/02/23 11:22:07;;;;;;;6.32;1.88;;;18.20;40.20;;;;;;6184623;28;20061;-72
2022/02/23 11:25:09;;;;;;;10.43;1.92;;;18.40;40.00;;;;;;6213739;28;20494;-72
2022/02/23 11:28:20;;;;;;;3.63;1.27;;;18.60;39.70;;;;;;6197335;28;22247;-73
2022/02/23 11:31:22;;;;;;;4.95;1.52;;;18.90;39.20;;;;;;6200841;28;20051;-73
2022/02/23 11:34:26;;;;;;;5.80;2.47;;;19.20;38.70;;;;;;6215488;28;20360;-73
2022/02/23 11:37:30;;;;;;;6.03;1.90;;;19.40;37.90;;;;;;6216372;28;20137;-74
2022/02/23 11:40:45;;;;;;;6.00;2.10;;;19.90;37.30;;;;;;6198705;28;20092;-73
2022/02/23 11:43:46;;;;;;;3.35;1.52;;;20.30;36.60;;;;;;6197341;28;20033;-74
2022/02/23 11:46:53;;;;;;;9.93;3.45;;;20.70;35.60;;;;;;6199862;28;20066;-73
2022/02/23 11:49:56;;;;;;;1.85;1.13;;;21.10;34.50;;;;;;6197986;28;20193;-72
2022/02/23 11:52:59;;;;;;;8.23;2.03;;;21.40;33.30;;;;;;6199778;28;20034;-74
2022/02/23 11:56:14;;;;;;;3.42;1.65;;;21.50;32.70;;;;;;6196185;28;20110;-73
2022/02/23 11:59:52;;;;;;;5.05;2.53;;;21.70;32.80;;;;;;6197499;28;20045;-73
2022/02/23 12:03:11;;;;;;;5.40;2.53;;;22.10;32.10;;;;;;6193054;28;20041;-73
2022/02/23 12:06:12;;;;;;;7.20;2.10;;;22.70;31.00;;;;;;6199449;28;20108;-74
2022/02/23 12:09:45;;;;;;;3.97;1.27;;;23.00;29.90;;;;;;6214534;28;20042;-73
2022/02/23 12:12:49;;;;;;;3.45;1.60;;;23.40;29.70;;;;;;6193777;28;20045;-74
2022/02/23 12:15:51;;;;;;;4.13;1.15;;;23.60;29.10;;;;;;6208017;28;20482;-72
2022/02/23 12:19:07;;;;;;;5.60;1.80;;;23.90;28.70;;;;;;6199849;28;20054;-73
2022/02/23 12:22:09;;;;;;;3.72;1.30;;;24.10;28.70;;;;;;6199618;28;20075;-72
2022/02/23 12:25:09;;;;;;;5.43;1.75;;;24.50;28.40;;;;;;6199942;28;20034;-72
2022/02/23 12:28:10;;;;;;;6.45;1.33;;;24.90;28.00;;;;;;6196572;28;20053;-73
2022/02/23 12:31:20;;;;;;;3.33;0.98;;;25.20;27.50;;;;;;6199150;28;20042;-73
2022/02/23 12:34:25;;;;;;;5.63;1.25;;;25.40;27.10;;;;;;6197182;28;20045;-73
2022/02/23 12:37:28;;;;;;;4.32;1.52;;;25.80;26.70;;;;;;6200640;28;20050;-73
2022/02/23 12:40:30;;;;;;;4.47;1.10;;;26.20;26.30;;;;;;6193399;28;20058;-72
2022/02/23 12:43:31;;;;;;;2.53;1.00;;;26.40;25.60;;;;;;6200351;28;20026;-72
2022/02/23 12:46:34;;;;;;;2.45;1.10;;;26.50;25.40;;;;;;6200019;28;20486;-73
2022/02/23 12:49:36;;;;;;;5.22;1.40;;;26.60;25.20;;;;;;6200157;28;20049;-73
2022/02/23 12:52:37;;;;;;;1.75;1.20;;;26.30;25.00;;;;;;6200019;28;20057;-73
2022/02/23 12:55:38;;;;;;;3.33;0.93;;;26.10;25.30;;;;;;6199324;28;20424;-72
2022/02/23 12:58:39;;;;;;;4.95;1.20;;;26.10;25.00;;;;;;6200905;28;20062;-72
2022/02/23 13:01:42;;;;;;;2.70;1.20;;;25.80;25.20;;;;;;6199279;28;20068;-73
2022/02/23 13:04:47;;;;;;;4.45;1.30;;;25.20;25.80;;;;;;6199810;28;20042;-73
2022/02/23 13:07:48;;;;;;;5.55;1.30;;;24.30;27.00;;;;;;6200863;28;20041;-73
2022/02/23 13:10:59;;;;;;;3.95;1.38;;;23.50;27.40;;;;;;6194219;28;20039;-73
2022/02/23 13:14:06;;;;;;;3.17;1.38;;;22.90;28.30;;;;;;6200544;28;20030;-72
2022/02/23 13:17:10;;;;;;;4.47;1.10;;;22.30;28.90;;;;;;6201270;28;20046;-73
2022/02/23 13:20:11;;;;;;;2.55;1.20;;;21.70;29.50;;;;;;6199711;28;20046;-72
2022/02/23 13:23:12;;;;;;;3.63;0.90;;;21.30;30.00;;;;;;6215196;28;20097;-73
2022/02/23 13:26:13;;;;;;;6.47;1.92;;;20.90;30.40;;;;;;6182998;28;20491;-71
2022/02/23 13:29:25;;;;;;;3.83;1.85;;;20.50;31.00;;;;;;6183220;28;20043;-72
2022/02/23 13:32:34;;;;;;;2.13;1.20;;;20.20;31.60;;;;;;6199443;28;20133;-72
2022/02/23 13:35:34;;;;;;;4.10;1.45;;;20.00;32.10;;;;;;6198897;28;20173;-72
2022/02/23 13:38:36;;;;;;;12.02;1.42;;;19.70;32.30;;;;;;6198241;28;20479;-73
2022/02/23 13:41:48;;;;;;;5.40;1.60;;;19.50;32.60;;;;;;6197285;28;20416;-73
2022/02/23 13:44:49;;;;;;;2.13;1.50;;;19.40;32.80;;;;;;6195084;28;20050;-73
2022/02/23 13:47:53;;;;;;;5.50;1.27;;;19.20;32.80;;;;;;6195904;28;20415;-73
2022/02/23 13:50:56;;;;;;;5.82;1.02;;;19.00;33.10;;;;;;6213627;28;20050;-74
2022/02/23 13:53:57;;;;;;;2.33;0.95;;;18.90;33.40;;;;;;6213864;28;20065;-73
2022/02/23 13:56:58;;;;;;;4.78;1.08;;;18.80;33.60;;;;;;6198065;28;20034;-73
2022/02/23 14:00:15;;;;;;;4.25;1.15;;;18.80;33.70;;;;;;6198088;28;20038;-72
2022/02/23 14:03:17;;;;;;;2.80;0.88;;;18.80;33.70;;;;;;6210881;28;20467;-73
2022/02/23 14:06:19;;;;;;;1.77;0.90;;;18.70;33.60;;;;;;6182476;28;20109;-73
2022/02/23 14:09:20;;;;;;;8.40;1.20;;;18.60;33.60;;;;;;6214467;28;20470;-73
2022/02/23 14:12:21;;;;;;;2.85;0.85;;;18.60;33.80;;;;;;6212773;28;20039;-73
2022/02/23 14:15:23;;;;;;;2.67;1.02;;;18.60;34.00;;;;;;6214299;28;20034;-73
2022/02/23 14:18:28;;;;;;;4.15;1.70;;;18.60;34.10;;;;;;6197724;28;20309;-73
2022/02/23 14:21:29;;;;;;;4.05;0.90;;;18.60;34.20;;;;;;6197490;28;20030;-73
2022/02/23 14:24:34;;;;;;;1.98;0.90;;;18.60;34.20;;;;;;6198462;28;20366;-73
2022/02/23 14:27:40;;;;;;;2.03;0.90;;;18.50;34.20;;;;;;6196931;28;20046;-74
2022/02/23 14:30:41;;;;;;;2.00;0.85;;;18.60;34.20;;;;;;6213449;28;20113;-72
2022/02/23 14:33:42;;;;;;;4.35;0.82;;;18.60;34.10;;;;;;6212266;28;20038;-72
2022/02/23 14:36:44;;;;;;;1.17;0.63;;;18.50;33.90;;;;;;6188783;28;20050;-72
2022/02/23 14:39:46;;;;;;;1.77;0.77;;;18.60;34.00;;;;;;6205270;28;20130;-72
2022/02/23 14:42:47;;;;;;;1.75;0.52;;;18.50;33.90;;;;;;6206327;28;20069;-73
2022/02/23 14:45:49;;;;;;;0.77;0.35;;;18.50;33.70;;;;;;6206100;28;20050;-73
2022/02/23 14:48:50;;;;;;;2.20;0.88;;;18.50;33.70;;;;;;6220915;28;20038;-73
2022/02/23 14:51:51;;;;;;;1.55;0.50;;;18.50;33.70;;;;;;6193381;28;20039;-73
2022/02/23 14:54:53;;;;;;;2.05;1.02;;;18.50;33.30;;;;;;6181122;28;20030;-73
2022/02/23 14:57:55;;;;;;;2.47;1.13;;;18.50;33.30;;;;;;6205016;28;20045;-72
2022/02/23 15:00:57;;;;;;;7.18;0.90;;;18.50;33.30;;;;;;6221638;28;20115;-72
2022/02/23 15:03:58;;;;;;;1.00;0.55;;;18.40;33.30;;;;;;6204936;28;20381;-72
2022/02/23 15:06:59;;;;;;;4.07;0.70;;;18.40;33.40;;;;;;6205850;28;20031;-73
2022/02/23 15:10:00;;;;;;;5.65;1.20;;;18.40;33.60;;;;;;6205465;28;20463;-72
2022/02/23 15:13:02;;;;;;;5.03;0.63;;;18.40;33.70;;;;;;6205082;28;20041;-72
2022/02/23 15:16:06;;;;;;;4.43;1.90;;;18.40;33.60;;;;;;6205163;28;20046;-72
2022/02/23 15:19:07;;;;;;;1.88;0.77;;;18.40;33.80;;;;;;6215340;28;20042;-73
2022/02/23 15:22:08;;;;;;;6.88;0.80;;;18.40;33.70;;;;;;6217560;28;20057;-72
2022/02/23 15:25:09;;;;;;;2.20;0.60;;;18.40;33.90;;;;;;6204507;28;20058;-73
2022/02/23 15:28:10;;;;;;;3.28;0.80;;;18.40;33.90;;;;;;6188998;28;20045;-73
2022/02/23 15:31:13;;;;;;;2.55;0.70;;;18.40;33.80;;;;;;6202952;28;20053;-73
2022/02/23 15:34:14;;;;;;;3.58;0.70;;;18.40;33.60;;;;;;6197530;28;20923;-73
2022/02/23 15:37:15;;;;;;;1.27;0.80;;;18.40;33.50;;;;;;6402127;23;20054;-72
2022/02/23 15:40:16;;;;;;;2.92;0.80;;;18.40;33.70;;;;;;6195581;28;20066;-72
2022/02/23 15:43:17;;;;;;;2.60;1.50;;;18.30;33.60;;;;;;6211578;28;20479;-71
2022/02/23 15:46:18;;;;;;;3.13;0.95;;;18.40;33.60;;;;;;6202316;28;20053;-74
2022/02/23 15:49:19;;;;;;;0.60;0.60;;;18.40;33.60;;;;;;6193331;28;20039;-72
2022/02/23 15:52:21;;;;;;;2.50;0.55;;;18.30;33.60;;;;;;6198092;28;20493;-73
2022/02/23 15:55:22;;;;;;;1.35;0.80;;;18.30;33.80;;;;;;6192657;28;20089;-71